sensor_id;sensor_type;location;lat;lon;timestamp;P1;durP1;ratioP1;P2;durP2;ratioP2
31306;SDS011;17935;51.120;13.132;2023-01-15T00:00:57;2.95;;;0.73;;
31306;SDS011;17935;51.120;13.132;2023-01-15T00:03:23;0.95;;;0.80;;
31306;SDS011;17935;51.120;13.132;2023-01-15T00:05:49;1.13;;;0.90;;
31306;SDS011;17935;51.120;13.132;2023-01-15T00:08:15;2.03;;;0.80;;
31306;SDS011;17935;51.120;13.132;2023-01-15T00:10:41;0.70;;;0.70;;
31306;SDS011;17935;51.120;13.132;2023-01-15T00:13:07;1.52;;;0.90;;
31306;SDS011;17935;51.120;13.132;2023-01-15T00:15:33;1.17;;;0.90;;
31306;SDS011;17935;51.120;13.132;2023-01-15T00:17:59;0.73;;;0.73;;
31306;SDS011;17935;51.120;13.132;2023-01-15T00:20:25;1.10;;;1.00;;
31306;SDS011;17935;51.120;13.132;2023-01-15T00:22:51;4.63;;;1.10;;
31306;SDS011;17935;51.120;13.132;2023-01-15T00:25:16;0.88;;;0.82;;
31306;SDS011;17935;51.120;13.132;2023-01-15T00:28:01;0.70;;;0.70;;
31306;SDS011;17935;51.120;13.132;2023-01-15T00:30:27;0.73;;;0.73;;
31306;SDS011;17935;51.120;13.132;2023-01-15T00:32:53;3.85;;;1.08;;
31306;SDS011;17935;51.120;13.132;2023-01-15T00:35:20;1.55;;;0.80;;
31306;SDS011;17935;51.120;13.132;2023-01-15T00:37:46;1.70;;;0.80;;
31306;SDS011;17935;51.120;13.132;2023-01-15T00:40:12;1.73;;;0.93;;
31306;SDS011;17935;51.120;13.132;2023-01-15T00:42:39;1.00;;;0.90;;
31306;SDS011;17935;51.120;13.132;2023-01-15T00:45:05;0.73;;;0.73;;
31306;SDS011;17935;51.120;13.132;2023-01-15T00:47:35;1.25;;;0.95;;
31306;SDS011;17935;51.120;13.132;2023-01-15T00:50:02;0.73;;;0.73;;
31306;SDS011;17935;51.120;13.132;2023-01-15T00:52:28;1.52;;;0.90;;
31306;SDS011;17935;51.120;13.132;2023-01-15T00:54:53;1.05;;;0.70;;
31306;SDS011;17935;51.120;13.132;2023-01-15T00:57:19;1.08;;;0.88;;
31306;SDS011;17935;51.120;13.132;2023-01-15T00:59:45;1.92;;;1.02;;
31306;SDS011;17935;51.120;13.132;2023-01-15T01:02:11;0.98;;;0.90;;
31306;SDS011;17935;51.120;13.132;2023-01-15T01:04:37;2.78;;;0.90;;
31306;SDS011;17935;51.120;13.132;2023-01-15T01:07:03;2.92;;;0.80;;
31306;SDS011;17935;51.120;13.132;2023-01-15T01:09:29;1.30;;;1.00;;
31306;SDS011;17935;51.120;13.132;2023-01-15T01:11:55;0.65;;;0.65;;
31306;SDS011;17935;51.120;13.132;2023-01-15T01:14:21;0.80;;;0.80;;
31306;SDS011;17935;51.120;13.132;2023-01-15T01:16:47;1.65;;;1.13;;
31306;SDS011;17935;51.120;13.132;2023-01-15T01:19:14;0.80;;;0.80;;
31306;SDS011;17935;51.120;13.132;2023-01-15T01:21:41;2.60;;;1.00;;
31306;SDS011;17935;51.120;13.132;2023-01-15T01:24:07;0.90;;;0.90;;
31306;SDS011;17935;51.120;13.132;2023-01-15T01:26:35;0.88;;;0.75;;
31306;SDS011;17935;51.120;13.132;2023-01-15T01:29:01;1.25;;;1.15;;
31306;SDS011;17935;51.120;13.132;2023-01-15T01:31:26;2.95;;;1.00;;
31306;SDS011;17935;51.120;13.132;2023-01-15T01:33:53;1.00;;;0.77;;
31306;SDS011;17935;51.120;13.132;2023-01-15T01:36:20;1.80;;;0.70;;
31306;SDS011;17935;51.120;13.132;2023-01-15T01:38:50;1.20;;;0.98;;
31306;SDS011;17935;51.120;13.132;2023-01-15T01:41:16;1.77;;;1.00;;
31306;SDS011;17935;51.120;13.132;2023-01-15T01:43:53;1.05;;;0.80;;
31306;SDS011;17935;51.120;13.132;2023-01-15T01:46:19;1.85;;;0.90;;
31306;SDS011;17935;51.120;13.132;2023-01-15T01:48:45;2.22;;;0.88;;
31306;SDS011;17935;51.120;13.132;2023-01-15T01:51:13;1.45;;;1.00;;
31306;SDS011;17935;51.120;13.132;2023-01-15T01:53:39;0.80;;;0.80;;
31306;SDS011;17935;51.120;13.132;2023-01-15T01:56:06;1.95;;;0.90;;
31306;SDS011;17935;51.120;13.132;2023-01-15T01:58:32;1.10;;;1.00;;
31306;SDS011;17935;51.120;13.132;2023-01-15T02:00:59;0.73;;;0.73;;
31306;SDS011;17935;51.120;13.132;2023-01-15T02:03:27;1.67;;;0.93;;
31306;SDS011;17935;51.120;13.132;2023-01-15T02:05:55;1.27;;;0.90;;
31306;SDS011;17935;51.120;13.132;2023-01-15T02:08:23;1.02;;;0.80;;
31306;SDS011;17935;51.120;13.132;2023-01-15T02:10:51;1.05;;;0.73;;
31306;SDS011;17935;51.120;13.132;2023-01-15T02:13:24;1.17;;;0.68;;
31306;SDS011;17935;51.120;13.132;2023-01-15T02:15:59;0.68;;;0.68;;
31306;SDS011;17935;51.120;13.132;2023-01-15T02:18:33;2.28;;;1.20;;
31306;SDS011;17935;51.120;13.132;2023-01-15T02:21:07;0.90;;;0.82;;
31306;SDS011;17935;51.120;13.132;2023-01-15T02:26:25;0.80;;;0.73;;
31306;SDS011;17935;51.120;13.132;2023-01-15T02:28:55;1.10;;;0.77;;
31306;SDS011;17935;51.120;13.132;2023-01-15T02:31:31;0.90;;;0.90;;
31306;SDS011;17935;51.120;13.132;2023-01-15T02:34:03;2.40;;;0.90;;
31306;SDS011;17935;51.120;13.132;2023-01-15T02:36:31;2.13;;;1.20;;
31306;SDS011;17935;51.120;13.132;2023-01-15T02:38:58;1.08;;;0.98;;
31306;SDS011;17935;51.120;13.132;2023-01-15T02:41:30;3.65;;;1.10;;
31306;SDS011;17935;51.120;13.132;2023-01-15T02:43:58;1.70;;;1.20;;
31306;SDS011;17935;51.120;13.132;2023-01-15T02:46:26;0.77;;;0.75;;
31306;SDS011;17935;51.120;13.132;2023-01-15T02:48:54;1.52;;;0.98;;
31306;SDS011;17935;51.120;13.132;2023-01-15T02:51:23;1.52;;;0.80;;
31306;SDS011;17935;51.120;13.132;2023-01-15T02:53:50;0.85;;;0.85;;
31306;SDS011;17935;51.120;13.132;2023-01-15T02:56:18;0.70;;;0.70;;
31306;SDS011;17935;51.120;13.132;2023-01-15T02:58:46;1.40;;;0.75;;
31306;SDS011;17935;51.120;13.132;2023-01-15T03:01:14;0.60;;;0.60;;
31306;SDS011;17935;51.120;13.132;2023-01-15T03:03:43;0.57;;;0.57;;
31306;SDS011;17935;51.120;13.132;2023-01-15T03:06:32;1.90;;;0.70;;
31306;SDS011;17935;51.120;13.132;2023-01-15T03:09:02;0.60;;;0.60;;
31306;SDS011;17935;51.120;13.132;2023-01-15T03:11:28;0.60;;;0.60;;
31306;SDS011;17935;51.120;13.132;2023-01-15T03:14:00;1.40;;;0.82;;
31306;SDS011;17935;51.120;13.132;2023-01-15T03:16:29;2.10;;;1.00;;
31306;SDS011;17935;51.120;13.132;2023-01-15T03:19:19;0.93;;;0.70;;
31306;SDS011;17935;51.120;13.132;2023-01-15T03:21:52;1.95;;;0.80;;
31306;SDS011;17935;51.120;13.132;2023-01-15T03:24:41;1.13;;;0.70;;
31306;SDS011;17935;51.120;13.132;2023-01-15T03:27:08;2.25;;;0.80;;
31306;SDS011;17935;51.120;13.132;2023-01-15T03:29:36;1.42;;;0.70;;
31306;SDS011;17935;51.120;13.132;2023-01-15T03:32:03;4.63;;;0.90;;
31306;SDS011;17935;51.120;13.132;2023-01-15T03:34:32;2.53;;;1.00;;
31306;SDS011;17935;51.120;13.132;2023-01-15T03:36:59;0.77;;;0.70;;
31306;SDS011;17935;51.120;13.132;2023-01-15T03:39:25;1.25;;;0.90;;
31306;SDS011;17935;51.120;13.132;2023-01-15T03:41:58;0.68;;;0.68;;
31306;SDS011;17935;51.120;13.132;2023-01-15T03:44:37;2.92;;;1.45;;
31306;SDS011;17935;51.120;13.132;2023-01-15T03:47:11;0.60;;;0.57;;
31306;SDS011;17935;51.120;13.132;2023-01-15T03:57:21;2.50;;;1.13;;
31306;SDS011;17935;51.120;13.132;2023-01-15T03:59:52;0.80;;;0.80;;
31306;SDS011;17935;51.120;13.132;2023-01-15T04:02:18;1.08;;;0.80;;
31306;SDS011;17935;51.120;13.132;2023-01-15T04:04:45;0.90;;;0.90;;
31306;SDS011;17935;51.120;13.132;2023-01-15T04:07:11;0.90;;;0.90;;
31306;SDS011;17935;51.120;13.132;2023-01-15T04:09:38;1.00;;;0.93;;
31306;SDS011;17935;51.120;13.132;2023-01-15T04:12:04;1.02;;;0.60;;
31306;SDS011;17935;51.120;13.132;2023-01-15T04:14:30;1.08;;;1.08;;
31306;SDS011;17935;51.120;13.132;2023-01-15T04:16:57;1.30;;;0.88;;
31306;SDS011;17935;51.120;13.132;2023-01-15T04:19:22;1.00;;;0.90;;
31306;SDS011;17935;51.120;13.132;2023-01-15T04:21:48;0.82;;;0.80;;
31306;SDS011;17935;51.120;13.132;2023-01-15T04:24:14;1.13;;;0.80;;
31306;SDS011;17935;51.120;13.132;2023-01-15T04:26:40;1.23;;;0.80;;
31306;SDS011;17935;51.120;13.132;2023-01-15T04:29:06;0.90;;;0.70;;
31306;SDS011;17935;51.120;13.132;2023-01-15T04:31:32;0.90;;;0.90;;
31306;SDS011;17935;51.120;13.132;2023-01-15T04:34:00;1.00;;;0.90;;
31306;SDS011;17935;51.120;13.132;2023-01-15T04:36:26;0.70;;;0.70;;
31306;SDS011;17935;51.120;13.132;2023-01-15T04:38:52;1.40;;;0.95;;
31306;SDS011;17935;51.120;13.132;2023-01-15T04:41:18;2.15;;;0.80;;
31306;SDS011;17935;51.120;13.132;2023-01-15T04:44:03;6.63;;;0.95;;
31306;SDS011;17935;51.120;13.132;2023-01-15T04:46:36;0.70;;;0.70;;
31306;SDS011;17935;51.120;13.132;2023-01-15T04:49:04;0.63;;;0.63;;
31306;SDS011;17935;51.120;13.132;2023-01-15T04:51:30;0.77;;;0.77;;
31306;SDS011;17935;51.120;13.132;2023-01-15T04:53:56;0.70;;;0.70;;
31306;SDS011;17935;51.120;13.132;2023-01-15T04:56:22;0.70;;;0.70;;
31306;SDS011;17935;51.120;13.132;2023-01-15T04:58:48;3.47;;;0.90;;
31306;SDS011;17935;51.120;13.132;2023-01-15T05:01:14;0.60;;;0.60;;
31306;SDS011;17935;51.120;13.132;2023-01-15T05:03:41;0.70;;;0.70;;
31306;SDS011;17935;51.120;13.132;2023-01-15T05:06:07;0.88;;;0.85;;
31306;SDS011;17935;51.120;13.132;2023-01-15T05:08:33;1.75;;;1.05;;
31306;SDS011;17935;51.120;13.132;2023-01-15T05:11:02;0.85;;;0.77;;
31306;SDS011;17935;51.120;13.132;2023-01-15T05:13:28;0.60;;;0.60;;
31306;SDS011;17935;51.120;13.132;2023-01-15T05:15:57;0.77;;;0.60;;
31306;SDS011;17935;51.120;13.132;2023-01-15T05:18:31;1.35;;;0.70;;
31306;SDS011;17935;51.120;13.132;2023-01-15T05:20:57;0.85;;;0.68;;
31306;SDS011;17935;51.120;13.132;2023-01-15T05:23:23;0.60;;;0.60;;
31306;SDS011;17935;51.120;13.132;2023-01-15T05:25:49;1.00;;;0.80;;
31306;SDS011;17935;51.120;13.132;2023-01-15T05:28:14;0.75;;;0.75;;
31306;SDS011;17935;51.120;13.132;2023-01-15T05:30:40;0.57;;;0.57;;
31306;SDS011;17935;51.120;13.132;2023-01-15T05:33:06;0.60;;;0.60;;
31306;SDS011;17935;51.120;13.132;2023-01-15T05:35:32;0.60;;;0.60;;
31306;SDS011;17935;51.120;13.132;2023-01-15T05:37:58;1.08;;;0.95;;
31306;SDS011;17935;51.120;13.132;2023-01-15T05:40:24;0.60;;;0.60;;
31306;SDS011;17935;51.120;13.132;2023-01-15T05:42:50;0.80;;;0.57;;
31306;SDS011;17935;51.120;13.132;2023-01-15T05:45:16;0.77;;;0.60;;
31306;SDS011;17935;51.120;13.132;2023-01-15T05:47:42;0.88;;;0.88;;
31306;SDS011;17935;51.120;13.132;2023-01-15T05:50:08;1.85;;;0.50;;
31306;SDS011;17935;51.120;13.132;2023-01-15T05:52:34;0.77;;;0.70;;
31306;SDS011;17935;51.120;13.132;2023-01-15T05:55:00;0.57;;;0.57;;
31306;SDS011;17935;51.120;13.132;2023-01-15T05:57:26;2.33;;;0.60;;
31306;SDS011;17935;51.120;13.132;2023-01-15T05:59:52;0.52;;;0.52;;
31306;SDS011;17935;51.120;13.132;2023-01-15T06:02:19;0.82;;;0.82;;
31306;SDS011;17935;51.120;13.132;2023-01-15T06:04:45;0.77;;;0.77;;
31306;SDS011;17935;51.120;13.132;2023-01-15T06:07:11;2.05;;;0.80;;
31306;SDS011;17935;51.120;13.132;2023-01-15T06:09:36;0.90;;;0.90;;
31306;SDS011;17935;51.120;13.132;2023-01-15T06:12:02;1.95;;;1.10;;
31306;SDS011;17935;51.120;13.132;2023-01-15T06:14:28;1.58;;;1.48;;
31306;SDS011;17935;51.120;13.132;2023-01-15T06:16:54;3.33;;;1.08;;
31306;SDS011;17935;51.120;13.132;2023-01-15T06:19:20;1.95;;;1.10;;
31306;SDS011;17935;51.120;13.132;2023-01-15T06:21:46;1.30;;;1.20;;
31306;SDS011;17935;51.120;13.132;2023-01-15T06:24:13;1.13;;;1.10;;
31306;SDS011;17935;51.120;13.132;2023-01-15T06:26:41;1.17;;;1.08;;
31306;SDS011;17935;51.120;13.132;2023-01-15T06:29:07;1.85;;;1.17;;
31306;SDS011;17935;51.120;13.132;2023-01-15T06:31:32;0.85;;;0.85;;
31306;SDS011;17935;51.120;13.132;2023-01-15T06:33:58;1.00;;;1.00;;
31306;SDS011;17935;51.120;13.132;2023-01-15T06:36:25;2.67;;;1.20;;
31306;SDS011;17935;51.120;13.132;2023-01-15T06:38:51;1.08;;;1.08;;
31306;SDS011;17935;51.120;13.132;2023-01-15T06:41:21;1.15;;;0.98;;
31306;SDS011;17935;51.120;13.132;2023-01-15T06:44:07;1.00;;;1.00;;
31306;SDS011;17935;51.120;13.132;2023-01-15T06:46:54;1.15;;;0.90;;
31306;SDS011;17935;51.120;13.132;2023-01-15T06:49:38;1.27;;;1.17;;
31306;SDS011;17935;51.120;13.132;2023-01-15T06:52:04;1.65;;;0.93;;
31306;SDS011;17935;51.120;13.132;2023-01-15T06:54:30;1.42;;;1.00;;
31306;SDS011;17935;51.120;13.132;2023-01-15T06:56:56;2.75;;;1.30;;
31306;SDS011;17935;51.120;13.132;2023-01-15T06:59:22;4.88;;;1.02;;
31306;SDS011;17935;51.120;13.132;2023-01-15T07:01:48;3.35;;;1.13;;
31306;SDS011;17935;51.120;13.132;2023-01-15T07:04:14;1.50;;;1.17;;
31306;SDS011;17935;51.120;13.132;2023-01-15T07:06:40;1.35;;;1.25;;
31306;SDS011;17935;51.120;13.132;2023-01-15T07:09:06;2.70;;;0.95;;
31306;SDS011;17935;51.120;13.132;2023-01-15T07:11:32;1.13;;;1.10;;
31306;SDS011;17935;51.120;13.132;2023-01-15T07:13:58;2.45;;;1.10;;
31306;SDS011;17935;51.120;13.132;2023-01-15T07:16:31;2.65;;;1.50;;
31306;SDS011;17935;51.120;13.132;2023-01-15T07:18:57;1.38;;;1.27;;
31306;SDS011;17935;51.120;13.132;2023-01-15T07:21:23;2.15;;;1.20;;
31306;SDS011;17935;51.120;13.132;2023-01-15T07:23:49;2.38;;;1.00;;
31306;SDS011;17935;51.120;13.132;2023-01-15T07:26:15;1.63;;;1.10;;
31306;SDS011;17935;51.120;13.132;2023-01-15T07:28:41;1.10;;;1.00;;
31306;SDS011;17935;51.120;13.132;2023-01-15T07:31:06;4.95;;;1.05;;
31306;SDS011;17935;51.120;13.132;2023-01-15T07:33:32;1.02;;;0.98;;
31306;SDS011;17935;51.120;13.132;2023-01-15T07:36:02;2.45;;;1.10;;
31306;SDS011;17935;51.120;13.132;2023-01-15T07:38:28;1.55;;;1.10;;
31306;SDS011;17935;51.120;13.132;2023-01-15T07:40:57;0.93;;;0.90;;
31306;SDS011;17935;51.120;13.132;2023-01-15T07:43:42;2.55;;;1.20;;
31306;SDS011;17935;51.120;13.132;2023-01-15T07:46:26;4.40;;;1.50;;
31306;SDS011;17935;51.120;13.132;2023-01-15T07:49:11;1.92;;;1.50;;
31306;SDS011;17935;51.120;13.132;2023-01-15T07:51:56;4.78;;;1.70;;
31306;SDS011;17935;51.120;13.132;2023-01-15T07:54:22;2.15;;;1.80;;
31306;SDS011;17935;51.120;13.132;2023-01-15T07:56:49;1.88;;;1.40;;
31306;SDS011;17935;51.120;13.132;2023-01-15T07:59:16;2.13;;;1.88;;
31306;SDS011;17935;51.120;13.132;2023-01-15T08:01:42;1.80;;;1.70;;
31306;SDS011;17935;51.120;13.132;2023-01-15T08:04:08;2.20;;;1.83;;
31306;SDS011;17935;51.120;13.132;2023-01-15T08:06:34;1.48;;;1.38;;
31306;SDS011;17935;51.120;13.132;2023-01-15T08:09:00;1.33;;;1.23;;
31306;SDS011;17935;51.120;13.132;2023-01-15T08:11:26;1.48;;;1.35;;
31306;SDS011;17935;51.120;13.132;2023-01-15T08:14:12;3.42;;;1.50;;
31306;SDS011;17935;51.120;13.132;2023-01-15T08:16:57;1.40;;;1.30;;
31306;SDS011;17935;51.120;13.132;2023-01-15T08:19:23;1.77;;;1.30;;
31306;SDS011;17935;51.120;13.132;2023-01-15T08:21:49;2.35;;;1.60;;
31306;SDS011;17935;51.120;13.132;2023-01-15T08:24:15;4.10;;;1.88;;
31306;SDS011;17935;51.120;13.132;2023-01-15T08:26:41;2.15;;;1.63;;
31306;SDS011;17935;51.120;13.132;2023-01-15T08:29:07;1.60;;;1.50;;
31306;SDS011;17935;51.120;13.132;2023-01-15T08:31:33;2.08;;;1.63;;
31306;SDS011;17935;51.120;13.132;2023-01-15T08:34:00;1.50;;;1.40;;
31306;SDS011;17935;51.120;13.132;2023-01-15T08:36:26;1.50;;;1.40;;
31306;SDS011;17935;51.120;13.132;2023-01-15T08:38:52;3.13;;;1.60;;
31306;SDS011;17935;51.120;13.132;2023-01-15T08:41:18;5.32;;;1.45;;
31306;SDS011;17935;51.120;13.132;2023-01-15T08:43:44;2.03;;;1.90;;
31306;SDS011;17935;51.120;13.132;2023-01-15T08:46:10;1.85;;;1.55;;
31306;SDS011;17935;51.120;13.132;2023-01-15T08:48:36;3.67;;;1.83;;
31306;SDS011;17935;51.120;13.132;2023-01-15T08:51:05;2.15;;;1.95;;
31306;SDS011;17935;51.120;13.132;2023-01-15T08:53:31;4.90;;;2.25;;
31306;SDS011;17935;51.120;13.132;2023-01-15T08:55:57;3.72;;;1.70;;
31306;SDS011;17935;51.120;13.132;2023-01-15T08:58:25;2.13;;;1.55;;
31306;SDS011;17935;51.120;13.132;2023-01-15T09:00:51;2.72;;;1.60;;
31306;SDS011;17935;51.120;13.132;2023-01-15T09:03:17;2.72;;;2.38;;
31306;SDS011;17935;51.120;13.132;2023-01-15T09:05:43;3.35;;;2.63;;
31306;SDS011;17935;51.120;13.132;2023-01-15T09:08:09;20.23;;;12.82;;
31306;SDS011;17935;51.120;13.132;2023-01-15T09:10:36;14.23;;;12.35;;
31306;SDS011;17935;51.120;13.132;2023-01-15T09:13:02;6.70;;;4.70;;
31306;SDS011;17935;51.120;13.132;2023-01-15T09:15:29;4.25;;;3.85;;
31306;SDS011;17935;51.120;13.132;2023-01-15T09:17:56;5.18;;;2.63;;
31306;SDS011;17935;51.120;13.132;2023-01-15T09:20:22;2.17;;;1.75;;
31306;SDS011;17935;51.120;13.132;2023-01-15T09:22:48;7.80;;;5.90;;
31306;SDS011;17935;51.120;13.132;2023-01-15T09:25:14;6.25;;;3.75;;
31306;SDS011;17935;51.120;13.132;2023-01-15T09:27:42;5.28;;;4.40;;
31306;SDS011;17935;51.120;13.132;2023-01-15T09:30:18;3.50;;;2.45;;
31306;SDS011;17935;51.120;13.132;2023-01-15T09:32:44;3.47;;;1.88;;
31306;SDS011;17935;51.120;13.132;2023-01-15T09:35:10;2.42;;;1.95;;
31306;SDS011;17935;51.120;13.132;2023-01-15T09:37:36;3.08;;;1.88;;
31306;SDS011;17935;51.120;13.132;2023-01-15T09:40:02;3.25;;;2.17;;
31306;SDS011;17935;51.120;13.132;2023-01-15T09:42:32;4.57;;;2.03;;
31306;SDS011;17935;51.120;13.132;2023-01-15T09:45:09;3.40;;;2.00;;
31306;SDS011;17935;51.120;13.132;2023-01-15T09:47:53;6.47;;;3.28;;
31306;SDS011;17935;51.120;13.132;2023-01-15T09:50:22;6.47;;;3.05;;
31306;SDS011;17935;51.120;13.132;2023-01-15T09:52:56;4.28;;;2.40;;
31306;SDS011;17935;51.120;13.132;2023-01-15T09:55:26;3.90;;;3.20;;
31306;SDS011;17935;51.120;13.132;2023-01-15T09:57:54;2.90;;;2.42;;
31306;SDS011;17935;51.120;13.132;2023-01-15T10:00:22;5.15;;;2.63;;
31306;SDS011;17935;51.120;13.132;2023-01-15T10:05:25;2.97;;;2.00;;
31306;SDS011;17935;51.120;13.132;2023-01-15T10:08:02;3.13;;;2.83;;
31306;SDS011;17935;51.120;13.132;2023-01-15T10:10:31;1.75;;;1.63;;
31306;SDS011;17935;51.120;13.132;2023-01-15T10:13:05;1.75;;;1.65;;
31306;SDS011;17935;51.120;13.132;2023-01-15T10:15:40;2.53;;;2.33;;
31306;SDS011;17935;51.120;13.132;2023-01-15T10:23:23;3.05;;;1.98;;
31306;SDS011;17935;51.120;13.132;2023-01-15T10:25:59;2.42;;;2.22;;
31306;SDS011;17935;51.120;13.132;2023-01-15T10:28:30;1.40;;;1.30;;
31306;SDS011;17935;51.120;13.132;2023-01-15T10:31:01;1.40;;;1.30;;
31306;SDS011;17935;51.120;13.132;2023-01-15T10:33:39;1.27;;;1.17;;
31306;SDS011;17935;51.120;13.132;2023-01-15T10:36:09;1.00;;;0.90;;
31306;SDS011;17935;51.120;13.132;2023-01-15T10:41:22;1.30;;;1.20;;
31306;SDS011;17935;51.120;13.132;2023-01-15T10:46:24;1.98;;;1.17;;
31306;SDS011;17935;51.120;13.132;2023-01-15T10:48:56;1.10;;;1.00;;
31306;SDS011;17935;51.120;13.132;2023-01-15T10:51:29;0.65;;;0.65;;
31306;SDS011;17935;51.120;13.132;2023-01-15T10:54:03;1.27;;;0.90;;
31306;SDS011;17935;51.120;13.132;2023-01-15T10:56:30;1.48;;;1.38;;
31306;SDS011;17935;51.120;13.132;2023-01-15T10:59:02;1.30;;;1.17;;
31306;SDS011;17935;51.120;13.132;2023-01-15T11:01:32;1.27;;;0.82;;
31306;SDS011;17935;51.120;13.132;2023-01-15T11:03:58;0.60;;;0.60;;
31306;SDS011;17935;51.120;13.132;2023-01-15T11:06:24;1.23;;;0.90;;
31306;SDS011;17935;51.120;13.132;2023-01-15T11:08:54;1.73;;;1.27;;
31306;SDS011;17935;51.120;13.132;2023-01-15T11:11:22;1.58;;;1.10;;
31306;SDS011;17935;51.120;13.132;2023-01-15T11:14:08;4.40;;;1.67;;
31306;SDS011;17935;51.120;13.132;2023-01-15T11:16:53;2.92;;;1.60;;
31306;SDS011;17935;51.120;13.132;2023-01-15T11:19:35;1.35;;;0.90;;
31306;SDS011;17935;51.120;13.132;2023-01-15T11:22:09;1.70;;;1.00;;
31306;SDS011;17935;51.120;13.132;2023-01-15T11:24:36;1.10;;;1.00;;
31306;SDS011;17935;51.120;13.132;2023-01-15T11:27:03;1.02;;;0.93;;
31306;SDS011;17935;51.120;13.132;2023-01-15T11:29:31;1.50;;;1.40;;
31306;SDS011;17935;51.120;13.132;2023-01-15T11:31:58;1.40;;;0.80;;
31306;SDS011;17935;51.120;13.132;2023-01-15T11:34:24;1.55;;;0.90;;
31306;SDS011;17935;51.120;13.132;2023-01-15T11:37:00;1.77;;;1.10;;
31306;SDS011;17935;51.120;13.132;2023-01-15T11:39:27;2.97;;;1.00;;
31306;SDS011;17935;51.120;13.132;2023-01-15T11:42:02;0.93;;;0.90;;
31306;SDS011;17935;51.120;13.132;2023-01-15T11:44:51;1.20;;;0.90;;
31306;SDS011;17935;51.120;13.132;2023-01-15T11:47:36;1.42;;;0.90;;
31306;SDS011;17935;51.120;13.132;2023-01-15T11:50:20;1.65;;;1.05;;
31306;SDS011;17935;51.120;13.132;2023-01-15T11:53:06;1.20;;;1.00;;
31306;SDS011;17935;51.120;13.132;2023-01-15T11:55:33;1.48;;;1.05;;
31306;SDS011;17935;51.120;13.132;2023-01-15T11:57:59;0.98;;;0.90;;
31306;SDS011;17935;51.120;13.132;2023-01-15T12:00:27;7.35;;;1.02;;
31306;SDS011;17935;51.120;13.132;2023-01-15T12:02:54;2.97;;;0.80;;
31306;SDS011;17935;51.120;13.132;2023-01-15T12:05:25;1.42;;;1.00;;
31306;SDS011;17935;51.120;13.132;2023-01-15T12:07:52;1.30;;;0.95;;
31306;SDS011;17935;51.120;13.132;2023-01-15T12:10:20;1.55;;;1.20;;
31306;SDS011;17935;51.120;13.132;2023-01-15T12:13:10;1.85;;;0.93;;
31306;SDS011;17935;51.120;13.132;2023-01-15T12:23:36;2.60;;;1.02;;
31306;SDS011;17935;51.120;13.132;2023-01-15T12:26:07;4.18;;;0.98;;
31306;SDS011;17935;51.120;13.132;2023-01-15T12:28:46;3.83;;;1.42;;
31306;SDS011;17935;51.120;13.132;2023-01-15T12:31:15;1.33;;;1.00;;
31306;SDS011;17935;51.120;13.132;2023-01-15T12:36:29;6.95;;;1.13;;
31306;SDS011;17935;51.120;13.132;2023-01-15T12:39:00;6.82;;;1.25;;
31306;SDS011;17935;51.120;13.132;2023-01-15T12:41:34;1.05;;;0.88;;
31306;SDS011;17935;51.120;13.132;2023-01-15T12:44:21;1.60;;;0.90;;
31306;SDS011;17935;51.120;13.132;2023-01-15T12:47:12;0.98;;;0.65;;
31306;SDS011;17935;51.120;13.132;2023-01-15T12:49:41;1.10;;;0.90;;
31306;SDS011;17935;51.120;13.132;2023-01-15T12:52:10;0.82;;;0.80;;
31306;SDS011;17935;51.120;13.132;2023-01-15T12:54:45;1.70;;;0.82;;
31306;SDS011;17935;51.120;13.132;2023-01-15T12:57:19;1.00;;;0.90;;
31306;SDS011;17935;51.120;13.132;2023-01-15T13:02:16;0.73;;;0.73;;
31306;SDS011;17935;51.120;13.132;2023-01-15T13:04:49;2.25;;;0.90;;
31306;SDS011;17935;51.120;13.132;2023-01-15T13:12:22;1.92;;;0.70;;
31306;SDS011;17935;51.120;13.132;2023-01-15T13:14:49;0.90;;;0.90;;
31306;SDS011;17935;51.120;13.132;2023-01-15T13:17:23;0.88;;;0.88;;
31306;SDS011;17935;51.120;13.132;2023-01-15T13:19:57;1.08;;;0.75;;
31306;SDS011;17935;51.120;13.132;2023-01-15T13:22:27;0.98;;;0.70;;
31306;SDS011;17935;51.120;13.132;2023-01-15T13:27:25;2.45;;;0.73;;
31306;SDS011;17935;51.120;13.132;2023-01-15T13:29:57;2.55;;;1.00;;
31306;SDS011;17935;51.120;13.132;2023-01-15T13:32:28;0.88;;;0.70;;
31306;SDS011;17935;51.120;13.132;2023-01-15T13:37:43;1.02;;;0.88;;
31306;SDS011;17935;51.120;13.132;2023-01-15T13:40:19;0.80;;;0.60;;
31306;SDS011;17935;51.120;13.132;2023-01-15T13:42:48;0.70;;;0.70;;
31306;SDS011;17935;51.120;13.132;2023-01-15T13:47:44;3.33;;;0.80;;
31306;SDS011;17935;51.120;13.132;2023-01-15T13:50:12;0.93;;;0.90;;
31306;SDS011;17935;51.120;13.132;2023-01-15T13:52:40;0.73;;;0.73;;
31306;SDS011;17935;51.120;13.132;2023-01-15T13:55:08;0.95;;;0.80;;
31306;SDS011;17935;51.120;13.132;2023-01-15T13:57:36;1.42;;;1.05;;
31306;SDS011;17935;51.120;13.132;2023-01-15T14:00:03;1.08;;;0.90;;
31306;SDS011;17935;51.120;13.132;2023-01-15T14:02:30;0.88;;;0.80;;
31306;SDS011;17935;51.120;13.132;2023-01-15T14:04:58;1.38;;;0.73;;
31306;SDS011;17935;51.120;13.132;2023-01-15T14:07:34;1.33;;;0.77;;
31306;SDS011;17935;51.120;13.132;2023-01-15T14:10:20;3.28;;;1.10;;
31306;SDS011;17935;51.120;13.132;2023-01-15T14:12:51;1.65;;;1.10;;
31306;SDS011;17935;51.120;13.132;2023-01-15T14:15:28;1.98;;;1.40;;
31306;SDS011;17935;51.120;13.132;2023-01-15T14:18:09;2.30;;;1.35;;
31306;SDS011;17935;51.120;13.132;2023-01-15T14:25:53;1.08;;;1.05;;
31306;SDS011;17935;51.120;13.132;2023-01-15T14:31:13;1.10;;;1.00;;
31306;SDS011;17935;51.120;13.132;2023-01-15T14:36:18;0.80;;;0.80;;
31306;SDS011;17935;51.120;13.132;2023-01-15T14:38:49;0.70;;;0.70;;
31306;SDS011;17935;51.120;13.132;2023-01-15T14:41:22;0.77;;;0.77;;
31306;SDS011;17935;51.120;13.132;2023-01-15T14:43:50;1.02;;;0.93;;
31306;SDS011;17935;51.120;13.132;2023-01-15T14:46:26;1.10;;;1.00;;
31306;SDS011;17935;51.120;13.132;2023-01-15T14:48:53;0.60;;;0.60;;
31306;SDS011;17935;51.120;13.132;2023-01-15T14:51:27;1.73;;;0.63;;
31306;SDS011;17935;51.120;13.132;2023-01-15T14:54:04;1.10;;;0.93;;
31306;SDS011;17935;51.120;13.132;2023-01-15T14:56:33;1.23;;;1.00;;
31306;SDS011;17935;51.120;13.132;2023-01-15T14:59:13;1.20;;;1.10;;
31306;SDS011;17935;51.120;13.132;2023-01-15T15:01:43;1.00;;;0.90;;
31306;SDS011;17935;51.120;13.132;2023-01-15T15:06:54;0.85;;;0.70;;
31306;SDS011;17935;51.120;13.132;2023-01-15T15:14:46;2.28;;;1.20;;
31306;SDS011;17935;51.120;13.132;2023-01-15T15:17:18;0.73;;;0.73;;
31306;SDS011;17935;51.120;13.132;2023-01-15T15:19:47;0.80;;;0.80;;
31306;SDS011;17935;51.120;13.132;2023-01-15T15:22:15;1.42;;;0.93;;
31306;SDS011;17935;51.120;13.132;2023-01-15T15:24:44;1.92;;;0.80;;
31306;SDS011;17935;51.120;13.132;2023-01-15T15:27:18;5.72;;;0.90;;
31306;SDS011;17935;51.120;13.132;2023-01-15T15:29:45;1.40;;;1.05;;
31306;SDS011;17935;51.120;13.132;2023-01-15T15:32:15;1.25;;;0.90;;
31306;SDS011;17935;51.120;13.132;2023-01-15T15:34:42;2.67;;;0.98;;
31306;SDS011;17935;51.120;13.132;2023-01-15T15:37:18;1.20;;;0.80;;
31306;SDS011;17935;51.120;13.132;2023-01-15T15:40:28;2.75;;;0.80;;
31306;SDS011;17935;51.120;13.132;2023-01-15T15:42:35;3.33;;;1.05;;
31306;SDS011;17935;51.120;13.132;2023-01-15T15:45:27;1.10;;;1.00;;
31306;SDS011;17935;51.120;13.132;2023-01-15T15:48:16;1.65;;;0.65;;
31306;SDS011;17935;51.120;13.132;2023-01-15T15:51:01;1.33;;;1.08;;
31306;SDS011;17935;51.120;13.132;2023-01-15T15:53:30;2.92;;;1.00;;
31306;SDS011;17935;51.120;13.132;2023-01-15T15:55:56;0.80;;;0.80;;